Time;durP1;ratioP1;P1;durP2;ratioP2;P2;SDS_P1;SDS_P2;PMS_P1;PMS_P2;Temp;Humidity;BMP_temperature;BMP_pressure;BME280_temperature;BME280_humidity;BME280_pressure;Samples;Min_cycle;Max_cycle;Signal;HPM_P1;HPM_P2
2022/11/16 00:00:58;;;;;;;8.05;6.40;;;;;;;;;;5085877;28;20435;-81
2022/11/16 00:03:24;;;;;;;9.60;6.50;;;;;;;;;;5085825;28;20868;-82
2022/11/16 00:05:55;;;;;;;8.20;6.23;;;;;;;;;;5085305;28;20423;-81
2022/11/16 00:08:21;;;;;;;7.15;6.32;;;;;;;;;;5086409;28;20921;-81
2022/11/16 00:10:48;;;;;;;8.38;6.50;;;;;;;;;;5081499;28;20433;-81
2022/11/16 00:13:14;;;;;;;7.68;6.00;;;;;;;;;;5080338;28;20961;-82
2022/11/16 00:15:43;;;;;;;7.80;6.30;;;;;;;;;;5083232;28;20414;-81
2022/11/16 00:18:11;;;;;;;7.32;6.40;;;;;;;;;;5079898;28;20425;-82
2022/11/16 00:20:38;;;;;;;8.23;6.65;;;;;;;;;;5083427;28;20438;-82
2022/11/16 00:23:04;;;;;;;9.93;6.20;;;;;;;;;;5084814;28;20433;-81
2022/11/16 00:25:33;;;;;;;6.78;5.70;;;;;;;;;;5086296;28;20424;-81
2022/11/16 00:27:59;;;;;;;8.57;6.20;;;;;;;;;;5078631;28;20434;-81
2022/11/16 00:30:25;;;;;;;7.28;6.25;;;;;;;;;;5081424;28;20437;-82
2022/11/16 00:32:52;;;;;;;9.00;6.70;;;;;;;;;;5088376;28;20428;-82
2022/11/16 00:35:20;;;;;;;7.30;6.07;;;;;;;;;;5083499;28;20420;-81
2022/11/16 00:37:46;;;;;;;6.00;5.40;;;;;;;;;;5083906;28;20432;-81
2022/11/16 00:40:13;;;;;;;7.10;5.90;;;;;;;;;;5073295;28;20422;-82
2022/11/16 00:42:39;;;;;;;8.15;6.00;;;;;;;;;;5082656;28;20438;-81
2022/11/16 00:45:06;;;;;;;8.27;6.57;;;;;;;;;;5083700;28;20424;-81
2022/11/16 00:47:32;;;;;;;6.90;5.90;;;;;;;;;;5080173;28;20412;-82
2022/11/16 00:49:58;;;;;;;8.13;6.28;;;;;;;;;;5087544;28;20445;-81
2022/11/16 00:52:26;;;;;;;7.80;6.38;;;;;;;;;;5091157;28;20411;-81
2022/11/16 00:54:52;;;;;;;7.40;5.95;;;;;;;;;;5084642;28;20415;-81
2022/11/16 00:57:20;;;;;;;8.30;6.47;;;;;;;;;;5079551;28;20508;-83
2022/11/16 00:59:46;;;;;;;7.13;6.15;;;;;;;;;;5086741;28;20986;-81
2022/11/16 01:02:14;;;;;;;7.38;6.03;;;;;;;;;;5078029;28;20427;-82
2022/11/16 01:04:40;;;;;;;7.10;5.90;;;;;;;;;;5076576;28;20412;-82
2022/11/16 01:07:07;;;;;;;6.82;6.07;;;;;;;;;;5080534;28;20422;-81
2022/11/16 01:09:35;;;;;;;7.10;5.97;;;;;;;;;;5081555;28;20448;-82
2022/11/16 01:12:11;;;;;;;7.55;6.75;;;;;;;;;;5081847;28;20510;-81
2022/11/16 01:14:38;;;;;;;7.57;6.07;;;;;;;;;;5086465;28;20502;-82
2022/11/16 01:17:05;;;;;;;7.70;6.05;;;;;;;;;;5085997;28;20425;-81
2022/11/16 01:19:31;;;;;;;9.93;6.73;;;;;;;;;;5076620;28;20953;-82
2022/11/16 01:21:58;;;;;;;9.30;6.13;;;;;;;;;;5081283;28;20423;-81
2022/11/16 01:24:25;;;;;;;7.78;5.95;;;;;;;;;;5084788;28;20425;-81
2022/11/16 01:26:55;;;;;;;7.88;5.70;;;;;;;;;;5077096;28;20788;-82
2022/11/16 01:29:22;;;;;;;8.02;6.65;;;;;;;;;;5079583;28;20981;-82
2022/11/16 01:31:48;;;;;;;7.53;6.05;;;;;;;;;;5081589;28;20422;-81
2022/11/16 01:34:14;;;;;;;7.40;6.22;;;;;;;;;;5083738;28;20781;-82
2022/11/16 01:36:41;;;;;;;7.05;6.22;;;;;;;;;;5079977;28;20423;-81
2022/11/16 01:39:09;;;;;;;8.05;5.95;;;;;;;;;;5083104;28;21025;-82
2022/11/16 01:41:36;;;;;;;9.07;6.65;;;;;;;;;;5084595;28;20439;-81
2022/11/16 01:44:04;;;;;;;8.70;5.90;;;;;;;;;;5066989;28;20467;-81
2022/11/16 01:46:31;;;;;;;9.05;6.55;;;;;;;;;;5073815;28;20433;-81
2022/11/16 01:49:02;;;;;;;6.90;5.68;;;;;;;;;;5060821;28;20415;-81
2022/11/16 01:51:28;;;;;;;6.88;6.13;;;;;;;;;;5079838;28;21003;-81
2022/11/16 01:53:56;;;;;;;7.95;5.95;;;;;;;;;;5083436;28;20926;-82
2022/11/16 01:56:24;;;;;;;8.18;5.60;;;;;;;;;;5079057;28;20518;-81
2022/11/16 01:58:51;;;;;;;7.65;6.20;;;;;;;;;;5082620;28;20432;-81
2022/11/16 02:01:21;;;;;;;7.70;5.90;;;;;;;;;;5073181;28;20442;-82
2022/11/16 02:03:47;;;;;;;7.07;6.22;;;;;;;;;;5082312;28;20838;-81
2022/11/16 02:06:29;;;;;;;9.55;6.55;;;;;;;;;;5081842;28;20432;-82
2022/11/16 02:11:53;;;;;;;7.03;6.07;;;;;;;;;;5085903;28;20437;-81
2022/11/16 02:14:27;;;;;;;7.33;6.60;;;;;;;;;;5081649;28;20416;-81
2022/11/16 02:16:59;;;;;;;8.70;6.65;;;;;;;;;;5087539;28;20436;-81
2022/11/16 02:19:40;;;;;;;8.07;6.78;;;;;;;;;;5083043;28;20418;-81
2022/11/16 02:22:14;;;;;;;7.85;6.65;;;;;;;;;;5084040;28;20427;-81
2022/11/16 02:24:44;;;;;;;9.60;6.80;;;;;;;;;;5081576;28;20417;-81
2022/11/16 02:27:28;;;;;;;7.90;7.10;;;;;;;;;;5086181;28;20432;-81
2022/11/16 02:29:57;;;;;;;8.48;6.70;;;;;;;;;;5083704;28;20481;-81
2022/11/16 02:32:26;;;;;;;7.57;6.57;;;;;;;;;;5085244;28;20458;-81
2022/11/16 02:34:55;;;;;;;9.80;7.03;;;;;;;;;;5086834;28;20443;-82
2022/11/16 02:37:23;;;;;;;10.68;7.70;;;;;;;;;;5079736;28;20432;-82
2022/11/16 02:39:52;;;;;;;9.57;7.32;;;;;;;;;;5067674;28;20422;-81
2022/11/16 02:42:20;;;;;;;9.65;7.82;;;;;;;;;;5084243;28;20445;-82
2022/11/16 02:44:48;;;;;;;8.27;6.90;;;;;;;;;;5081893;28;20436;-81
2022/11/16 02:47:18;;;;;;;8.60;7.50;;;;;;;;;;5082172;28;20432;-82
2022/11/16 02:49:47;;;;;;;7.95;7.15;;;;;;;;;;5086065;28;20480;-82
2022/11/16 02:52:14;;;;;;;11.27;8.05;;;;;;;;;;5088271;28;20433;-82
2022/11/16 02:54:41;;;;;;;9.65;7.43;;;;;;;;;;5083821;28;20947;-82
2022/11/16 02:57:22;;;;;;;7.60;6.45;;;;;;;;;;5080050;28;20431;-82
2022/11/16 02:59:50;;;;;;;10.00;6.82;;;;;;;;;;5078095;28;20423;-81
2022/11/16 03:02:21;;;;;;;9.20;6.90;;;;;;;;;;5087221;28;20425;-82
2022/11/16 03:04:48;;;;;;;7.45;6.70;;;;;;;;;;5082334;28;20422;-81
2022/11/16 03:07:17;;;;;;;7.95;7.00;;;;;;;;;;5087871;28;20428;-81
2022/11/16 03:09:44;;;;;;;10.95;7.43;;;;;;;;;;5082598;28;20429;-82
2022/11/16 03:12:13;;;;;;;8.75;7.85;;;;;;;;;;5084791;28;20920;-82
2022/11/16 03:14:43;;;;;;;9.55;7.25;;;;;;;;;;5087899;28;20417;-81
2022/11/16 03:17:11;;;;;;;10.02;7.25;;;;;;;;;;5079488;28;20435;-81
2022/11/16 03:19:40;;;;;;;8.77;7.88;;;;;;;;;;5083003;28;20422;-81
2022/11/16 03:22:10;;;;;;;11.65;8.00;;;;;;;;;;5083880;28;20433;-81
2022/11/16 03:24:37;;;;;;;8.95;7.85;;;;;;;;;;5083170;28;20422;-81
2022/11/16 03:27:06;;;;;;;10.98;8.57;;;;;;;;;;5082769;28;20433;-81
2022/11/16 03:29:35;;;;;;;11.15;8.90;;;;;;;;;;5081845;28;20947;-81
2022/11/16 03:32:04;;;;;;;12.05;8.60;;;;;;;;;;5078835;28;20519;-81
2022/11/16 03:34:33;;;;;;;10.90;8.50;;;;;;;;;;5079673;28;20426;-81
2022/11/16 03:37:02;;;;;;;10.70;9.02;;;;;;;;;;5078571;28;20940;-81
2022/11/16 03:39:30;;;;;;;11.15;8.68;;;;;;;;;;5081563;28;20439;-82
2022/11/16 03:41:57;;;;;;;12.23;9.20;;;;;;;;;;5081861;28;20424;-81
2022/11/16 03:44:27;;;;;;;11.80;9.48;;;;;;;;;;5067082;28;20410;-81
2022/11/16 03:46:54;;;;;;;11.05;8.93;;;;;;;;;;5084452;28;20426;-81
2022/11/16 03:49:21;;;;;;;11.25;9.20;;;;;;;;;;5080933;28;20817;-82
2022/11/16 03:51:49;;;;;;;12.57;9.30;;;;;;;;;;5079366;28;20940;-82
2022/11/16 03:54:17;;;;;;;13.95;10.25;;;;;;;;;;5080199;28;20424;-81
2022/11/16 03:56:45;;;;;;;13.43;10.20;;;;;;;;;;5078433;28;20423;-82
2022/11/16 03:59:11;;;;;;;11.73;9.30;;;;;;;;;;5078231;28;20415;-81
2022/11/16 04:01:38;;;;;;;11.77;10.30;;;;;;;;;;5084445;28;20409;-81
2022/11/16 04:04:04;;;;;;;12.63;10.27;;;;;;;;;;5085044;28;20420;-81
2022/11/16 04:25:52;;;;;;;15.80;11.97;;;;;;;;;;5069783;28;20465;-82
2022/11/16 04:28:22;;;;;;;15.88;11.68;;;;;;;;;;5079408;28;20432;-81
2022/11/16 04:39:02;;;;;;;17.17;13.27;;;;;;;;;;5082940;28;20553;-82
2022/11/16 04:44:14;;;;;;;17.92;14.57;;;;;;;;;;5085035;28;20424;-82
2022/11/16 04:49:25;;;;;;;19.00;15.13;;;;;;;;;;5077683;28;20529;-81
2022/11/16 04:51:52;;;;;;;19.23;14.07;;;;;;;;;;5078238;28;20439;-82
2022/11/16 04:54:18;;;;;;;24.35;16.05;;;;;;;;;;5075378;28;20508;-81
2022/11/16 04:56:45;;;;;;;21.58;15.73;;;;;;;;;;5076281;28;20603;-82
2022/11/16 04:59:11;;;;;;;20.55;14.55;;;;;;;;;;5080423;28;20426;-82
2022/11/16 05:04:23;;;;;;;23.58;15.70;;;;;;;;;;5078870;28;20434;-81
2022/11/16 05:06:49;;;;;;;23.65;15.82;;;;;;;;;;5079267;28;20929;-82
2022/11/16 05:09:16;;;;;;;20.63;16.10;;;;;;;;;;5080435;28;20436;-81
2022/11/16 05:11:42;;;;;;;24.10;16.42;;;;;;;;;;5078453;28;20431;-81
2022/11/16 05:14:09;;;;;;;25.25;17.95;;;;;;;;;;5078733;28;20907;-81
2022/11/16 05:16:37;;;;;;;26.25;17.80;;;;;;;;;;5083348;28;20407;-82
2022/11/16 05:21:49;;;;;;;24.77;18.40;;;;;;;;;;5078585;28;20529;-81
2022/11/16 05:27:08;;;;;;;26.00;18.98;;;;;;;;;;5044627;28;21035;-81
2022/11/16 05:29:35;;;;;;;24.27;18.67;;;;;;;;;;5077000;28;20422;-81
2022/11/16 05:32:01;;;;;;;30.13;20.73;;;;;;;;;;5074668;28;20424;-81
2022/11/16 05:34:29;;;;;;;30.23;21.45;;;;;;;;;;5081884;28;20417;-81
2022/11/16 05:36:58;;;;;;;28.40;21.30;;;;;;;;;;5074744;28;20514;-82
2022/11/16 05:39:25;;;;;;;30.02;22.15;;;;;;;;;;5081589;28;20431;-81
2022/11/16 05:41:51;;;;;;;30.58;22.55;;;;;;;;;;5079492;28;20425;-82
2022/11/16 05:44:18;;;;;;;33.83;22.98;;;;;;;;;;5082348;28;20423;-82
2022/11/16 05:46:45;;;;;;;35.25;24.02;;;;;;;;;;5059153;28;20438;-82
2022/11/16 05:49:12;;;;;;;32.88;23.45;;;;;;;;;;5076910;28;20406;-82
2022/11/16 05:51:40;;;;;;;35.63;24.17;;;;;;;;;;5074098;28;20582;-81
2022/11/16 05:54:07;;;;;;;35.72;24.83;;;;;;;;;;5076646;28;20419;-81
2022/11/16 05:56:33;;;;;;;34.50;24.10;;;;;;;;;;5075698;28;20423;-81
2022/11/16 05:59:00;;;;;;;34.37;25.13;;;;;;;;;;5072431;28;20488;-81
2022/11/16 06:01:27;;;;;;;34.67;24.97;;;;;;;;;;5072831;28;20443;-81
2022/11/16 06:03:53;;;;;;;32.88;24.45;;;;;;;;;;5075808;28;20423;-82
2022/11/16 06:06:21;;;;;;;36.65;26.30;;;;;;;;;;5079670;28;20451;-81
2022/11/16 06:08:49;;;;;;;40.27;26.00;;;;;;;;;;5074553;28;21037;-81
2022/11/16 06:11:15;;;;;;;35.80;25.57;;;;;;;;;;5073220;28;20431;-81
2022/11/16 06:13:42;;;;;;;37.80;26.90;;;;;;;;;;5072212;28;20411;-81
2022/11/16 06:16:09;;;;;;;36.00;25.02;;;;;;;;;;5075768;28;20417;-81
2022/11/16 06:18:37;;;;;;;37.80;25.63;;;;;;;;;;5070990;28;20416;-81
2022/11/16 06:21:03;;;;;;;35.03;25.87;;;;;;;;;;5078446;28;20449;-81
2022/11/16 06:23:30;;;;;;;38.30;27.17;;;;;;;;;;5076703;28;20415;-82
2022/11/16 06:25:58;;;;;;;37.13;26.48;;;;;;;;;;5072216;28;20433;-81
2022/11/16 06:28:24;;;;;;;39.42;26.05;;;;;;;;;;5072248;28;20428;-80
2022/11/16 06:30:51;;;;;;;37.87;26.30;;;;;;;;;;5074716;28;20428;-80
2022/11/16 06:33:18;;;;;;;35.80;25.47;;;;;;;;;;5075340;28;20431;-80
2022/11/16 06:35:44;;;;;;;38.60;27.25;;;;;;;;;;5076297;28;20921;-80
2022/11/16 06:38:17;;;;;;;40.45;27.63;;;;;;;;;;5079365;28;20422;-80
2022/11/16 06:40:43;;;;;;;36.90;26.45;;;;;;;;;;5053668;28;20522;-81
2022/11/16 06:43:12;;;;;;;37.65;26.02;;;;;;;;;;5073805;28;20916;-82
2022/11/16 06:45:39;;;;;;;35.50;25.77;;;;;;;;;;5070007;28;20509;-80
2022/11/16 06:48:05;;;;;;;36.00;26.45;;;;;;;;;;5077882;28;20942;-80
2022/11/16 06:50:32;;;;;;;37.67;25.60;;;;;;;;;;5073965;28;20425;-80
2022/11/16 06:52:59;;;;;;;38.17;26.13;;;;;;;;;;5075825;28;20791;-80
2022/11/16 06:55:26;;;;;;;39.45;25.67;;;;;;;;;;5076634;28;20431;-80
2022/11/16 06:57:52;;;;;;;37.55;26.17;;;;;;;;;;5080200;28;20418;-80
2022/11/16 07:00:20;;;;;;;36.03;26.13;;;;;;;;;;5078997;28;20414;-80
2022/11/16 07:02:47;;;;;;;34.27;24.83;;;;;;;;;;5070056;28;20422;-80
2022/11/16 07:05:13;;;;;;;38.80;26.27;;;;;;;;;;5079870;28;20844;-80
2022/11/16 07:07:40;;;;;;;33.97;24.47;;;;;;;;;;5074259;28;20525;-80
2022/11/16 07:10:07;;;;;;;35.92;25.38;;;;;;;;;;5078225;28;20423;-80
2022/11/16 07:12:33;;;;;;;33.33;24.23;;;;;;;;;;5082523;28;20434;-80
2022/11/16 07:15:00;;;;;;;40.22;26.10;;;;;;;;;;5074301;28;20426;-81
2022/11/16 07:17:27;;;;;;;40.83;26.67;;;;;;;;;;5077458;28;20487;-80
2022/11/16 07:19:54;;;;;;;41.05;26.10;;;;;;;;;;5073538;28;20427;-80
2022/11/16 07:22:20;;;;;;;38.63;25.60;;;;;;;;;;5077349;28;20434;-81
2022/11/16 07:24:46;;;;;;;35.05;24.65;;;;;;;;;;5069761;28;21138;-81
2022/11/16 07:27:13;;;;;;;34.45;23.90;;;;;;;;;;5080590;28;20428;-80
2022/11/16 07:29:39;;;;;;;38.22;26.42;;;;;;;;;;5078369;28;20784;-81
2022/11/16 07:32:05;;;;;;;41.92;26.90;;;;;;;;;;5081948;28;20433;-81
2022/11/16 07:34:33;;;;;;;42.92;26.35;;;;;;;;;;5075412;28;20431;-81
2022/11/16 07:36:59;;;;;;;40.95;27.38;;;;;;;;;;5080604;28;20421;-81
2022/11/16 07:39:26;;;;;;;36.35;26.60;;;;;;;;;;5071426;28;20434;-81
2022/11/16 07:41:54;;;;;;;43.25;28.08;;;;;;;;;;5070728;28;20425;-80
2022/11/16 07:44:20;;;;;;;38.63;27.45;;;;;;;;;;5075086;28;20415;-80
2022/11/16 07:46:46;;;;;;;39.70;27.42;;;;;;;;;;5082565;28;20420;-80
2022/11/16 07:49:14;;;;;;;42.03;26.60;;;;;;;;;;5074973;28;20429;-80
2022/11/16 07:51:44;;;;;;;39.20;26.88;;;;;;;;;;5056883;28;20425;-80
2022/11/16 07:54:11;;;;;;;40.58;26.27;;;;;;;;;;5075699;28;20913;-80
2022/11/16 07:56:38;;;;;;;44.90;28.30;;;;;;;;;;5076209;28;21042;-80
2022/11/16 07:59:04;;;;;;;42.92;27.40;;;;;;;;;;5081067;28;20427;-81
2022/11/16 08:01:33;;;;;;;41.78;27.90;;;;;;;;;;5083941;28;20599;-80
2022/11/16 08:04:02;;;;;;;42.33;29.17;;;;;;;;;;5079691;28;20429;-80
2022/11/16 08:06:29;;;;;;;47.78;30.05;;;;;;;;;;5088889;28;20429;-80
2022/11/16 08:08:57;;;;;;;44.63;28.83;;;;;;;;;;5083013;28;20428;-80
2022/11/16 08:11:24;;;;;;;40.95;27.65;;;;;;;;;;5083806;28;20518;-80
2022/11/16 08:13:50;;;;;;;44.03;27.60;;;;;;;;;;5086044;28;20804;-81
2022/11/16 08:16:18;;;;;;;43.88;27.48;;;;;;;;;;5080500;28;20436;-80
2022/11/16 08:18:44;;;;;;;43.72;27.42;;;;;;;;;;5065197;28;20432;-81
2022/11/16 08:21:12;;;;;;;42.53;27.23;;;;;;;;;;5081595;28;20451;-81
2022/11/16 08:23:39;;;;;;;41.05;27.00;;;;;;;;;;5076960;28;20764;-80
2022/11/16 08:26:08;;;;;;;40.60;25.67;;;;;;;;;;5077945;28;20423;-80
2022/11/16 08:28:35;;;;;;;38.70;25.90;;;;;;;;;;5080837;28;21029;-80
2022/11/16 08:31:07;;;;;;;38.35;25.65;;;;;;;;;;5081659;28;20420;-80
2022/11/16 08:33:33;;;;;;;42.38;27.40;;;;;;;;;;5079051;28;20471;-80
2022/11/16 08:36:03;;;;;;;41.17;27.35;;;;;;;;;;5078411;28;20427;-80
2022/11/16 08:38:29;;;;;;;39.90;26.38;;;;;;;;;;5084282;28;20422;-80
2022/11/16 08:40:58;;;;;;;39.92;25.15;;;;;;;;;;5082080;28;20428;-79
2022/11/16 08:43:26;;;;;;;40.53;26.23;;;;;;;;;;5073913;28;20430;-80
2022/11/16 08:45:52;;;;;;;40.83;26.33;;;;;;;;;;5074413;28;20429;-80
2022/11/16 08:48:21;;;;;;;38.60;26.50;;;;;;;;;;5080185;28;20821;-79
2022/11/16 08:50:47;;;;;;;42.15;27.88;;;;;;;;;;5076790;28;20518;-79
2022/11/16 08:53:15;;;;;;;38.83;25.95;;;;;;;;;;5078803;28;21192;-79
2022/11/16 08:55:42;;;;;;;41.75;27.98;;;;;;;;;;5072736;28;20429;-79
2022/11/16 08:58:08;;;;;;;40.42;27.30;;;;;;;;;;5076933;28;20420;-79
2022/11/16 09:00:37;;;;;;;38.30;26.15;;;;;;;;;;5078640;28;20424;-79
2022/11/16 09:03:03;;;;;;;39.83;26.52;;;;;;;;;;5082961;28;20419;-79
2022/11/16 09:05:30;;;;;;;37.85;25.58;;;;;;;;;;5082529;28;20419;-79
2022/11/16 09:07:56;;;;;;;41.33;26.20;;;;;;;;;;5081799;28;20426;-79
2022/11/16 09:10:24;;;;;;;41.45;27.33;;;;;;;;;;5073507;28;20428;-79
2022/11/16 09:12:51;;;;;;;38.00;25.50;;;;;;;;;;5077371;28;20435;-79
2022/11/16 09:15:18;;;;;;;39.75;26.05;;;;;;;;;;5060960;28;20440;-79
2022/11/16 09:17:48;;;;;;;35.03;25.70;;;;;;;;;;5073292;28;20426;-79
2022/11/16 09:20:15;;;;;;;38.80;26.40;;;;;;;;;;5076963;28;20427;-79
2022/11/16 09:22:42;;;;;;;42.67;27.60;;;;;;;;;;5085509;28;20433;-80
2022/11/16 09:25:09;;;;;;;38.45;25.17;;;;;;;;;;5074957;28;20426;-80
2022/11/16 09:27:38;;;;;;;37.83;25.15;;;;;;;;;;5078494;28;20479;-80
2022/11/16 09:30:05;;;;;;;35.92;24.95;;;;;;;;;;5074182;28;20428;-80
2022/11/16 09:32:32;;;;;;;39.38;25.95;;;;;;;;;;5076089;28;20495;-80
2022/11/16 09:35:00;;;;;;;34.20;23.80;;;;;;;;;;5082317;28;20415;-80
2022/11/16 09:37:26;;;;;;;44.20;25.50;;;;;;;;;;5081398;28;20436;-80
2022/11/16 09:39:53;;;;;;;37.75;26.25;;;;;;;;;;5083995;28;20421;-80
2022/11/16 09:42:25;;;;;;;38.70;25.00;;;;;;;;;;5085630;28;20447;-80
2022/11/16 09:44:59;;;;;;;37.75;25.77;;;;;;;;;;5079767;28;20431;-80
2022/11/16 09:47:34;;;;;;;36.53;24.98;;;;;;;;;;5076272;28;20453;-80
2022/11/16 09:50:04;;;;;;;36.50;25.77;;;;;;;;;;5079260;28;20414;-80
2022/11/16 09:52:32;;;;;;;37.25;26.17;;;;;;;;;;5080842;28;20410;-80
2022/11/16 09:55:01;;;;;;;37.03;26.67;;;;;;;;;;5077157;28;20421;-80
2022/11/16 09:57:31;;;;;;;38.73;26.43;;;;;;;;;;5082664;28;20496;-80
2022/11/16 09:59:59;;;;;;;36.10;25.27;;;;;;;;;;5084124;28;20787;-80
2022/11/16 10:02:28;;;;;;;36.97;24.63;;;;;;;;;;5081296;28;20407;-80
2022/11/16 10:04:57;;;;;;;40.15;26.40;;;;;;;;;;5061945;28;20419;-80
2022/11/16 10:07:28;;;;;;;36.40;26.05;;;;;;;;;;5079273;28;20454;-80
2022/11/16 10:09:55;;;;;;;34.17;24.98;;;;;;;;;;5081815;28;20506;-80
2022/11/16 10:12:25;;;;;;;33.42;23.23;;;;;;;;;;5081379;28;20881;-80
2022/11/16 10:15:06;;;;;;;39.58;26.55;;;;;;;;;;5080855;28;20427;-80
2022/11/16 10:17:38;;;;;;;38.00;24.92;;;;;;;;;;5083678;28;20418;-80
2022/11/16 10:20:14;;;;;;;37.20;24.30;;;;;;;;;;5079986;28;20945;-80
2022/11/16 10:22:45;;;;;;;32.40;24.55;;;;;;;;;;5084398;28;20773;-80
2022/11/16 10:25:15;;;;;;;34.60;24.50;;;;;;;;;;5080284;28;20923;-80
2022/11/16 10:27:55;;;;;;;37.42;25.58;;;;;;;;;;5084896;28;20429;-80
2022/11/16 10:30:22;;;;;;;37.25;25.42;;;;;;;;;;5084424;28;20410;-80
2022/11/16 10:32:50;;;;;;;33.95;24.73;;;;;;;;;;5079923;28;20407;-80
2022/11/16 10:35:19;;;;;;;33.55;25.10;;;;;;;;;;5078997;28;20412;-79
2022/11/16 10:37:49;;;;;;;34.95;25.10;;;;;;;;;;5077666;28;20467;-80
2022/11/16 10:40:18;;;;;;;35.38;25.73;;;;;;;;;;5083312;28;20858;-80
2022/11/16 10:42:46;;;;;;;33.65;25.10;;;;;;;;;;5081638;28;20423;-80
2022/11/16 10:45:16;;;;;;;39.20;27.08;;;;;;;;;;5083124;28;20419;-80
2022/11/16 10:47:45;;;;;;;38.67;26.93;;;;;;;;;;5079284;28;20426;-80
2022/11/16 10:50:24;;;;;;;35.05;26.20;;;;;;;;;;5082323;28;20424;-80
2022/11/16 10:52:52;;;;;;;35.95;25.30;;;;;;;;;;5083704;28;20758;-80
2022/11/16 10:55:20;;;;;;;36.53;24.63;;;;;;;;;;5082098;28;20412;-81
2022/11/16 10:57:53;;;;;;;33.25;23.77;;;;;;;;;;5078771;28;20427;-80
2022/11/16 11:00:33;;;;;;;34.65;23.60;;;;;;;;;;5075465;28;20478;-80
2022/11/16 11:02:59;;;;;;;34.50;23.55;;;;;;;;;;5077219;28;20453;-80
2022/11/16 11:05:25;;;;;;;33.45;25.20;;;;;;;;;;5080953;28;20417;-80
2022/11/16 11:08:01;;;;;;;32.85;24.25;;;;;;;;;;5075200;28;20434;-80
2022/11/16 11:10:32;;;;;;;40.17;25.48;;;;;;;;;;5072156;28;20717;-80
2022/11/16 11:13:02;;;;;;;38.20;26.03;;;;;;;;;;5079476;28;20443;-80
2022/11/16 11:15:29;;;;;;;37.25;25.23;;;;;;;;;;5077262;28;20411;-80
2022/11/16 11:18:12;;;;;;;35.22;25.38;;;;;;;;;;5077743;28;20419;-80
2022/11/16 11:20:40;;;;;;;32.47;24.60;;;;;;;;;;5081126;28;20426;-80
2022/11/16 11:23:12;;;;;;;39.13;25.10;;;;;;;;;;5080383;28;20503;-80
2022/11/16 11:25:40;;;;;;;35.83;24.52;;;;;;;;;;5078376;28;20422;-80
2022/11/16 11:28:16;;;;;;;33.03;24.30;;;;;;;;;;5080583;28;20422;-79
2022/11/16 11:30:51;;;;;;;34.67;24.45;;;;;;;;;;5073099;28;20424;-80
2022/11/16 11:33:20;;;;;;;33.67;24.80;;;;;;;;;;5079760;28;20432;-80
2022/11/16 11:35:56;;;;;;;34.65;24.83;;;;;;;;;;5080244;28;20538;-79
2022/11/16 11:38:25;;;;;;;31.63;23.27;;;;;;;;;;5079357;28;20434;-79
2022/11/16 11:40:59;;;;;;;31.10;23.60;;;;;;;;;;5076146;28;20435;-80
2022/11/16 11:43:27;;;;;;;33.95;24.77;;;;;;;;;;5083228;28;20434;-80
2022/11/16 11:45:55;;;;;;;31.55;23.95;;;;;;;;;;5077013;28;20426;-80
2022/11/16 11:48:31;;;;;;;33.42;24.35;;;;;;;;;;5085990;28;20433;-80
2022/11/16 11:51:00;;;;;;;30.85;24.20;;;;;;;;;;5076740;28;20421;-80
2022/11/16 11:53:38;;;;;;;40.67;25.60;;;;;;;;;;5076119;28;20438;-79
2022/11/16 11:56:05;;;;;;;36.42;26.10;;;;;;;;;;5085280;28;20421;-80
2022/11/16 11:58:33;;;;;;;35.42;26.30;;;;;;;;;;5078972;28;20414;-80
2022/11/16 12:01:06;;;;;;;40.15;26.13;;;;;;;;;;5078755;28;20422;-79
2022/11/16 12:03:56;;;;;;;36.45;26.83;;;;;;;;;;5074846;28;20438;-80
2022/11/16 12:06:27;;;;;;;36.65;26.10;;;;;;;;;;5059508;28;20422;-80
2022/11/16 12:09:03;;;;;;;37.45;26.77;;;;;;;;;;5066988;28;20772;-80
2022/11/16 12:11:35;;;;;;;37.20;27.60;;;;;;;;;;5074126;28;20431;-80
2022/11/16 12:14:07;;;;;;;38.67;29.10;;;;;;;;;;5081553;28;20418;-79
2022/11/16 12:16:38;;;;;;;38.35;26.20;;;;;;;;;;5081093;28;20421;-80
2022/11/16 12:19:20;;;;;;;33.00;24.70;;;;;;;;;;5081198;28;20431;-80
2022/11/16 12:21:53;;;;;;;35.83;26.48;;;;;;;;;;5080481;28;20792;-80
2022/11/16 12:24:28;;;;;;;33.08;26.02;;;;;;;;;;5074452;28;20423;-80
2022/11/16 12:27:00;;;;;;;34.08;24.88;;;;;;;;;;5077922;28;20781;-80
2022/11/16 12:29:33;;;;;;;34.42;24.73;;;;;;;;;;5077938;28;20414;-80
2022/11/16 12:32:07;;;;;;;36.00;25.17;;;;;;;;;;5078358;28;20457;-80
2022/11/16 12:34:41;;;;;;;31.67;24.00;;;;;;;;;;5081298;28;20418;-80
2022/11/16 12:37:10;;;;;;;32.83;24.23;;;;;;;;;;5080771;28;20423;-80
2022/11/16 12:39:42;;;;;;;34.33;24.45;;;;;;;;;;5077031;28;20952;-80
2022/11/16 12:42:20;;;;;;;32.10;24.00;;;;;;;;;;5078748;28;20433;-80
2022/11/16 12:44:56;;;;;;;34.40;23.50;;;;;;;;;;5081481;28;20430;-79
2022/11/16 12:47:26;;;;;;;31.60;23.05;;;;;;;;;;5083330;28;20428;-79
2022/11/16 12:49:59;;;;;;;30.27;22.73;;;;;;;;;;5083934;28;20411;-79
2022/11/16 12:52:34;;;;;;;30.93;23.43;;;;;;;;;;5086185;28;20490;-78
2022/11/16 12:55:08;;;;;;;30.20;22.48;;;;;;;;;;5076952;28;20408;-78
2022/11/16 12:57:40;;;;;;;34.33;25.13;;;;;;;;;;5084718;28;20437;-79
2022/11/16 13:00:07;;;;;;;28.95;21.50;;;;;;;;;;5082105;28;20417;-79
2022/11/16 13:02:41;;;;;;;30.70;23.85;;;;;;;;;;5083588;28;20412;-79
2022/11/16 13:05:13;;;;;;;30.88;24.35;;;;;;;;;;5080987;28;20429;-79
2022/11/16 13:07:42;;;;;;;33.03;23.73;;;;;;;;;;5085510;28;21049;-79
2022/11/16 13:10:14;;;;;;;32.33;23.40;;;;;;;;;;5081160;28;20784;-80
2022/11/16 13:12:44;;;;;;;34.95;23.90;;;;;;;;;;5081202;28;20434;-80
2022/11/16 13:15:17;;;;;;;33.53;23.70;;;;;;;;;;5065669;28;20424;-80
2022/11/16 13:17:47;;;;;;;32.15;23.38;;;;;;;;;;5084930;28;20472;-79
2022/11/16 13:20:22;;;;;;;34.03;23.75;;;;;;;;;;5080525;28;20423;-79
2022/11/16 13:22:52;;;;;;;34.88;23.20;;;;;;;;;;5083980;28;20435;-79
2022/11/16 13:25:22;;;;;;;31.35;22.85;;;;;;;;;;5079555;28;20410;-79
2022/11/16 13:27:49;;;;;;;32.08;21.67;;;;;;;;;;5083519;28;20448;-79
2022/11/16 13:30:18;;;;;;;31.85;23.60;;;;;;;;;;5061621;28;20416;-79
2022/11/16 13:32:56;;;;;;;34.13;22.90;;;;;;;;;;5081785;28;20427;-79
2022/11/16 13:35:23;;;;;;;33.65;23.65;;;;;;;;;;5078659;28;20421;-79
2022/11/16 13:37:55;;;;;;;31.25;21.88;;;;;;;;;;5081153;28;20908;-79
2022/11/16 13:40:25;;;;;;;31.45;22.98;;;;;;;;;;5087276;28;20442;-79
2022/11/16 13:43:00;;;;;;;30.35;21.70;;;;;;;;;;5087514;28;20954;-80
2022/11/16 13:45:31;;;;;;;31.85;21.83;;;;;;;;;;5090549;28;20413;-80
2022/11/16 13:47:58;;;;;;;30.40;20.73;;;;;;;;;;5081249;28;20412;-79
2022/11/16 13:50:28;;;;;;;27.40;20.38;;;;;;;;;;5084522;28;20419;-80
2022/11/16 13:52:59;;;;;;;26.80;19.43;;;;;;;;;;5083710;28;20423;-80
2022/11/16 13:55:30;;;;;;;28.55;19.60;;;;;;;;;;5062389;28;20429;-80
2022/11/16 13:57:57;;;;;;;29.05;18.40;;;;;;;;;;5076232;28;20438;-79
2022/11/16 14:00:27;;;;;;;26.42;18.95;;;;;;;;;;5079126;28;20422;-79
2022/11/16 14:03:09;;;;;;;26.35;18.27;;;;;;;;;;5077562;28;20434;-79
2022/11/16 14:05:41;;;;;;;26.13;18.83;;;;;;;;;;5079181;28;20420;-80
2022/11/16 14:08:22;;;;;;;27.27;19.10;;;;;;;;;;5084084;28;20482;-80
2022/11/16 14:11:02;;;;;;;24.55;17.33;;;;;;;;;;5075093;28;20416;-80
2022/11/16 14:13:39;;;;;;;26.17;18.23;;;;;;;;;;5084781;28;20408;-79
2022/11/16 14:16:24;;;;;;;27.13;18.83;;;;;;;;;;5060022;28;20434;-80
2022/11/16 14:18:51;;;;;;;27.73;18.80;;;;;;;;;;5080388;28;20419;-79
2022/11/16 14:21:24;;;;;;;27.42;18.63;;;;;;;;;;5083222;28;20419;-80
2022/11/16 14:23:58;;;;;;;25.33;18.20;;;;;;;;;;5081542;28;20474;-79
2022/11/16 14:26:31;;;;;;;27.53;17.30;;;;;;;;;;5081859;28;20519;-79
2022/11/16 14:29:10;;;;;;;25.58;16.90;;;;;;;;;;5086404;28;20430;-79
2022/11/16 14:31:46;;;;;;;24.65;17.45;;;;;;;;;;5077835;28;20434;-79
2022/11/16 14:34:15;;;;;;;26.77;17.75;;;;;;;;;;5082288;28;20402;-80
2022/11/16 14:36:43;;;;;;;25.50;17.33;;;;;;;;;;5077878;28;20783;-80
2022/11/16 14:39:30;;;;;;;25.92;17.83;;;;;;;;;;5080148;28;20461;-80
2022/11/16 14:41:59;;;;;;;25.92;17.30;;;;;;;;;;5083630;28;20430;-79
2022/11/16 14:44:27;;;;;;;27.92;17.20;;;;;;;;;;5087605;28;21040;-80
2022/11/16 14:46:54;;;;;;;25.90;16.92;;;;;;;;;;5084674;28;20955;-80
2022/11/16 14:49:21;;;;;;;25.23;16.20;;;;;;;;;;5086565;28;20502;-79
2022/11/16 14:51:49;;;;;;;24.13;16.63;;;;;;;;;;5090362;28;20504;-80
2022/11/16 14:54:21;;;;;;;22.65;15.00;;;;;;;;;;5084220;28;20406;-80
2022/11/16 14:57:00;;;;;;;21.95;14.85;;;;;;;;;;5083151;28;20981;-80
2022/11/16 14:59:27;;;;;;;20.75;14.88;;;;;;;;;;5090135;28;20412;-79
2022/11/16 15:01:53;;;;;;;21.60;14.60;;;;;;;;;;5084486;28;20436;-79
2022/11/16 15:04:21;;;;;;;20.38;15.13;;;;;;;;;;5080892;28;20757;-79
2022/11/16 15:06:49;;;;;;;19.47;13.93;;;;;;;;;;5081283;28;20510;-79
2022/11/16 15:09:19;;;;;;;20.00;14.00;;;;;;;;;;5076059;28;20427;-80
2022/11/16 15:14:38;;;;;;;22.50;13.90;;;;;;;;;;5088449;28;20464;-80
2022/11/16 15:17:06;;;;;;;19.67;13.47;;;;;;;;;;5082229;28;20421;-80
2022/11/16 15:19:33;;;;;;;20.77;13.75;;;;;;;;;;5078300;28;20905;-79
2022/11/16 15:22:00;;;;;;;19.60;13.00;;;;;;;;;;5085510;28;20413;-79